createdAt,value
2022-09-04T00:00:00.725Z,62.20
2022-09-04T00:04:10.939Z,60.65
2022-09-04T00:08:27.780Z,60.26
2022-09-04T00:12:38.073Z,60.37
2022-09-04T00:17:00.352Z,60.71
2022-09-04T00:21:21.588Z,61.81
2022-09-04T00:25:33.206Z,61.38
2022-09-04T00:29:49.869Z,61.11
2022-09-04T00:34:00.572Z,61.39
2022-09-04T00:38:31.368Z,61.47
2022-09-04T00:43:07.057Z,62.27
2022-09-04T00:47:40.780Z,62.09
2022-09-04T00:52:03.301Z,62.31
2022-09-04T00:56:25.209Z,62.24
2022-09-04T01:00:28.465Z,62.85
2022-09-04T01:05:09.656Z,61.99
2022-09-04T01:09:53.954Z,62.85
2022-09-04T01:14:00.719Z,63.00
2022-09-04T01:18:30.797Z,63.32
2022-09-04T01:22:51.672Z,63.23
2022-09-04T01:27:03.100Z,63.73
2022-09-04T01:31:18.374Z,63.65
2022-09-04T01:35:44.483Z,63.18
2022-09-04T01:39:57.913Z,64.18
2022-09-04T01:43:59.795Z,63.90
2022-09-04T01:48:07.934Z,64.81
2022-09-04T01:52:09.309Z,64.20
2022-09-04T01:56:21.182Z,65.39
2022-09-04T02:00:25.050Z,64.07
2022-09-04T02:05:03.978Z,64.96
2022-09-04T02:09:21.805Z,65.32
2022-09-04T02:14:04.284Z,64.94
2022-09-04T02:18:24.607Z,65.42
2022-09-04T02:22:44.931Z,65.44
2022-09-04T02:27:05.478Z,65.62
2022-09-04T02:31:17.044Z,65.43
2022-09-04T02:35:39.840Z,65.63
2022-09-04T02:40:04.059Z,65.43
2022-09-04T02:44:27.195Z,65.55
2022-09-04T02:48:40.993Z,65.53
2022-09-04T02:53:08.051Z,65.17
2022-09-04T02:57:47.966Z,65.06
2022-09-04T03:02:00.474Z,65.25
2022-09-04T03:06:10.751Z,65.10
2022-09-04T03:10:24.688Z,64.64
2022-09-04T03:14:38.335Z,64.85
2022-09-04T03:19:05.053Z,64.72
2022-09-04T03:23:35.457Z,64.80
2022-09-04T03:27:37.462Z,65.33
2022-09-04T03:32:15.114Z,64.93
2022-09-04T03:36:40.163Z,64.88
2022-09-04T03:40:49.978Z,65.46
2022-09-04T03:45:09.641Z,65.19
2022-09-04T03:49:22.307Z,65.59
2022-09-04T03:53:42.846Z,64.81
2022-09-04T03:58:29.207Z,65.28
2022-09-04T04:02:55.917Z,65.90
2022-09-04T04:07:13.782Z,65.13
2022-09-04T04:11:43.312Z,65.88
2022-09-04T04:16:03.505Z,66.42
2022-09-04T04:20:29.553Z,66.02
2022-09-04T04:24:50.427Z,66.27
2022-09-04T04:28:59.825Z,65.65
2022-09-04T04:33:30.826Z,65.85
2022-09-04T04:37:59.322Z,65.84
2022-09-04T04:42:09.011Z,66.17
2022-09-04T04:46:29.207Z,66.96
2022-09-04T04:50:59.371Z,67.23
2022-09-04T04:55:10.895Z,66.93
2022-09-04T04:59:23.440Z,67.59
2022-09-04T05:03:37.658Z,68.24
2022-09-04T05:07:48.100Z,67.77
2022-09-04T05:12:02.271Z,67.82
2022-09-04T05:16:19.314Z,68.12
2022-09-04T05:20:35.334Z,68.35
2022-09-04T05:25:00.088Z,69.50
2022-09-04T05:29:21.668Z,69.17
2022-09-04T05:33:30.470Z,69.72
2022-09-04T05:37:55.731Z,69.07
2022-09-04T05:42:34.458Z,68.48
2022-09-04T05:46:38.950Z,67.95
2022-09-04T05:50:47.521Z,67.32
2022-09-04T05:55:03.460Z,68.96
2022-09-04T05:59:19.933Z,69.79
2022-09-04T06:03:55.688Z,69.79
2022-09-04T06:08:28.935Z,68.94
2022-09-04T06:13:01.991Z,68.80
2022-09-04T06:17:22.860Z,68.32
2022-09-04T06:21:33.961Z,69.02
2022-09-04T06:26:00.357Z,68.10
2022-09-04T06:30:16.120Z,66.82
2022-09-04T06:34:58.872Z,67.03
2022-09-04T06:39:19.034Z,67.32
2022-09-04T06:43:24.626Z,65.90
2022-09-04T06:47:36.847Z,67.02
2022-09-04T06:52:03.207Z,67.10
2022-09-04T06:56:14.423Z,66.80
2022-09-04T07:00:18.054Z,65.79
2022-09-04T07:04:44.567Z,67.37
2022-09-04T07:09:03.520Z,66.63
2022-09-04T07:13:29.358Z,66.72
2022-09-04T07:17:42.146Z,65.90
2022-09-04T07:22:09.132Z,65.77
2022-09-04T07:26:11.153Z,64.24
2022-09-04T07:30:16.027Z,65.01
2022-09-04T07:34:38.601Z,64.91
2022-09-04T07:38:56.990Z,63.93
2022-09-04T07:43:11.127Z,65.77
2022-09-04T07:47:35.535Z,64.91
2022-09-04T07:51:45.699Z,64.38
2022-09-04T07:55:52.648Z,64.05
2022-09-04T08:00:10.292Z,63.38
2022-09-04T08:04:38.055Z,63.14
2022-09-04T08:09:18.125Z,62.55
2022-09-04T08:13:35.469Z,61.38
2022-09-04T08:18:01.511Z,61.10
2022-09-04T08:22:04.976Z,60.51
2022-09-04T08:26:14.972Z,60.95
2022-09-04T08:30:20.259Z,61.70
2022-09-04T08:34:47.536Z,60.00
2022-09-04T08:38:56.432Z,60.25
2022-09-04T08:43:04.112Z,60.85
2022-09-04T08:47:35.478Z,59.09
2022-09-04T08:52:08.856Z,59.06
2022-09-04T08:56:28.420Z,59.76
2022-09-04T09:00:48.077Z,55.89
2022-09-04T09:05:08.969Z,56.23
2022-09-04T09:09:10.350Z,53.40
2022-09-04T09:13:35.088Z,52.97
2022-09-04T09:17:53.866Z,53.38
2022-09-04T09:22:10.425Z,54.86
2022-09-04T09:26:29.409Z,53.34
2022-09-04T09:31:19.023Z,51.19
2022-09-04T09:39:58.706Z,52.43
2022-09-04T09:44:00.890Z,49.50
2022-09-04T09:48:33.453Z,49.88
2022-09-04T09:53:10.134Z,48.93
2022-09-04T09:57:36.611Z,49.44
2022-09-04T10:02:16.450Z,48.34
2022-09-04T10:06:59.219Z,46.88
2022-09-04T10:11:23.670Z,47.57
2022-09-04T10:15:28.612Z,47.85
2022-09-04T10:19:58.699Z,47.93
2022-09-04T10:24:07.033Z,46.06
2022-09-04T10:28:42.583Z,45.06
2022-09-04T10:33:11.750Z,44.92
2022-09-04T10:37:41.328Z,45.25
2022-09-04T10:42:16.813Z,43.62
2022-09-04T10:46:28.823Z,43.46
2022-09-04T10:51:00.036Z,43.06
2022-09-04T10:55:31.395Z,42.72
2022-09-04T11:00:05.738Z,41.61
2022-09-04T11:04:13.916Z,39.96
2022-09-04T11:08:39.679Z,39.93
2022-09-04T11:13:03.536Z,39.24
2022-09-04T11:17:51.599Z,38.43
2022-09-04T11:22:12.616Z,38.50
2022-09-04T11:26:53.532Z,39.85
2022-09-04T11:31:01.757Z,39.57
2022-09-04T11:35:22.160Z,38.78
2022-09-04T11:39:48.565Z,39.25
2022-09-04T11:44:07.085Z,36.19
2022-09-04T11:48:31.133Z,37.27
2022-09-04T11:52:46.639Z,37.87
2022-09-04T11:57:29.662Z,37.83
2022-09-04T12:01:31.011Z,37.66
2022-09-04T12:05:50.865Z,37.91
2022-09-04T12:10:26.575Z,36.49
2022-09-04T12:14:54.662Z,36.34
2022-09-04T12:19:39.859Z,37.45
2022-09-04T12:24:22.817Z,36.75
2022-09-04T12:29:03.199Z,35.63
2022-09-04T12:33:38.727Z,36.25
2022-09-04T12:37:43.639Z,34.82
2022-09-04T12:42:18.919Z,35.06
2022-09-04T12:46:50.249Z,34.79
2022-09-04T12:50:51.696Z,33.79
2022-09-04T12:55:37.178Z,33.79
2022-09-04T13:00:08.981Z,34.29
2022-09-04T13:04:27.870Z,34.58
2022-09-04T13:08:32.333Z,33.13
2022-09-04T13:13:05.074Z,32.04
2022-09-04T13:17:24.415Z,33.41
2022-09-04T13:21:51.581Z,33.79
2022-09-04T13:26:06.207Z,32.89
2022-09-04T13:30:24.525Z,33.09
2022-09-04T13:34:38.064Z,32.21
2022-09-04T13:38:51.739Z,33.56
2022-09-04T13:43:22.582Z,32.62
2022-09-04T13:47:31.926Z,31.88
2022-09-04T13:51:40.659Z,33.35
2022-09-04T13:55:49.869Z,32.72
2022-09-04T13:59:55.441Z,31.98
2022-09-04T14:04:04.947Z,32.15
2022-09-04T14:08:14.661Z,31.26
2022-09-04T14:12:57.611Z,33.03
2022-09-04T14:17:00.079Z,32.62
2022-09-04T14:21:14.857Z,33.55
2022-09-04T14:25:22.045Z,32.37
2022-09-04T14:29:50.021Z,32.59
2022-09-04T14:34:20.866Z,33.40
2022-09-04T14:38:54.333Z,32.22
2022-09-04T14:43:04.784Z,32.49
2022-09-04T14:47:26.043Z,33.41
2022-09-04T14:51:27.490Z,33.31
2022-09-04T14:55:32.468Z,32.34
2022-09-04T14:59:41.270Z,32.31
2022-09-04T15:03:55.325Z,32.71
2022-09-04T15:08:00.399Z,34.32
2022-09-04T15:12:25.960Z,34.95
2022-09-04T15:16:39.263Z,34.92
2022-09-04T15:20:53.996Z,35.47
2022-09-04T15:25:05.126Z,36.26
2022-09-04T15:29:14.199Z,36.87
2022-09-04T15:33:19.905Z,37.58
2022-09-04T15:37:28.598Z,37.30
2022-09-04T15:41:33.978Z,38.10
2022-09-04T15:45:53.538Z,39.04
2022-09-04T15:50:00.363Z,39.12
2022-09-04T15:54:11.757Z,38.04
2022-09-04T15:58:33.313Z,38.88
2022-09-04T16:02:51.476Z,39.18
2022-09-04T16:07:01.937Z,39.12
2022-09-04T16:11:11.688Z,38.89
2022-09-04T16:15:22.299Z,39.45
2022-09-04T16:19:53.914Z,39.67
2022-09-04T16:23:59.686Z,39.28
2022-09-04T16:28:07.987Z,39.85
2022-09-04T16:32:12.163Z,40.83
2022-09-04T16:36:40.157Z,40.05
2022-09-04T16:40:48.661Z,40.12
2022-09-04T16:45:16.892Z,40.48
2022-09-04T16:49:29.744Z,40.14
2022-09-04T16:53:43.494Z,40.71
2022-09-04T16:58:07.371Z,41.61
2022-09-04T17:02:51.151Z,41.49
2022-09-04T17:07:09.582Z,42.17
2022-09-04T17:11:55.885Z,43.68
2022-09-04T17:16:22.323Z,43.26
2022-09-04T17:21:39.703Z,43.71
2022-09-04T17:29:19.375Z,43.45
2022-09-04T17:29:48.041Z,44.44
2022-09-04T17:40:06.247Z,45.26
2022-09-04T17:40:49.400Z,44.93
2022-09-04T17:43:22.723Z,46.27
2022-09-04T17:47:34.176Z,46.53
2022-09-04T17:51:36.757Z,47.99
2022-09-04T17:55:47.625Z,48.40
2022-09-04T18:00:02.064Z,49.28
2022-09-04T18:04:21.863Z,48.02
2022-09-04T18:08:32.729Z,50.03
2022-09-04T18:12:43.911Z,52.06
2022-09-04T18:17:16.219Z,52.90
2022-09-04T18:21:35.767Z,52.65
2022-09-04T18:25:55.699Z,53.28
2022-09-04T18:32:20.317Z,54.36
2022-09-04T18:37:22.282Z,55.97
2022-09-04T18:39:21.047Z,56.79
2022-09-04T18:50:25.756Z,56.89
2022-09-04T18:50:50.652Z,57.33
2022-09-04T18:52:22.519Z,58.01
2022-09-04T18:56:30.700Z,57.80
2022-09-04T19:00:41.001Z,59.43
2022-09-04T19:05:00.338Z,59.55
2022-09-04T19:09:12.065Z,60.20
2022-09-04T19:13:22.155Z,59.14
2022-09-04T19:17:34.983Z,59.69
2022-09-04T19:21:39.897Z,60.49
2022-09-04T19:25:47.966Z,59.48
2022-09-04T19:30:23.907Z,59.92
2022-09-04T19:34:35.419Z,59.87
2022-09-04T19:45:55.886Z,60.96
2022-09-04T19:46:15.504Z,60.04
2022-09-04T19:48:35.516Z,59.90
2022-09-04T19:53:31.988Z,59.94
2022-09-04T19:57:41.187Z,60.28
2022-09-04T20:02:02.739Z,60.18
2022-09-04T20:06:21.853Z,60.62
2022-09-04T20:10:42.101Z,61.10
2022-09-04T20:14:56.115Z,61.75
2022-09-04T20:19:14.790Z,61.47
2022-09-04T20:23:51.010Z,61.89
2022-09-04T20:28:20.201Z,61.37
2022-09-04T20:32:28.366Z,61.84
2022-09-04T20:36:35.680Z,63.26
2022-09-04T20:40:43.847Z,62.29
2022-09-04T20:46:46.926Z,62.60
2022-09-04T20:52:55.062Z,62.83
2022-09-04T20:54:28.353Z,64.11
2022-09-04T21:03:11.417Z,63.07
2022-09-04T21:03:44.772Z,63.98
2022-09-04T21:08:02.619Z,64.93
2022-09-04T21:12:23.142Z,64.27
2022-09-04T21:16:59.533Z,64.59
2022-09-04T21:21:15.966Z,64.84
2022-09-04T21:25:31.440Z,64.89
2022-09-04T21:30:18.286Z,64.59
2022-09-04T21:34:32.489Z,64.37
2022-09-04T21:38:57.258Z,63.83
2022-09-04T21:43:20.433Z,65.17
2022-09-04T21:48:02.996Z,64.87
2022-09-04T21:52:27.325Z,64.33
2022-09-04T22:02:25.139Z,64.14
2022-09-04T22:02:49.496Z,64.29
2022-09-04T22:06:23.050Z,64.22
2022-09-04T22:13:38.284Z,64.96
2022-09-04T22:15:10.379Z,65.76
2022-09-04T22:19:22.479Z,64.85
2022-09-04T22:24:02.189Z,65.73
2022-09-04T22:28:45.365Z,65.31
2022-09-04T22:33:17.687Z,66.44
2022-09-04T22:37:50.137Z,66.35
2022-09-04T22:42:20.678Z,66.57
2022-09-04T22:46:54.657Z,66.39
2022-09-04T22:51:11.487Z,66.44
2022-09-04T22:55:40.242Z,66.12
2022-09-04T23:00:08.830Z,65.25
2022-09-04T23:04:25.354Z,65.35
2022-09-04T23:13:44.394Z,66.10
2022-09-04T23:13:58.886Z,65.74
2022-09-04T23:17:58.327Z,65.86
2022-09-04T23:26:47.348Z,65.68
2022-09-04T23:27:00.781Z,66.13
2022-09-04T23:31:40.491Z,65.52
2022-09-04T23:35:54.006Z,64.71
2022-09-04T23:40:28.408Z,65.25
2022-09-04T23:44:54.708Z,65.02
2022-09-04T23:49:24.909Z,65.73
2022-09-04T23:53:35.298Z,65.85
2022-09-04T23:57:44.655Z,66.46
